createdAt,value
2019-02-06T00:00:33.738Z,956.43
2019-02-06T00:03:00.047Z,956.42
2019-02-06T00:05:26.362Z,956.39
2019-02-06T00:07:52.666Z,956.30
2019-02-06T00:10:18.995Z,956.37
2019-02-06T00:12:45.308Z,956.38
2019-02-06T00:15:11.601Z,956.36
2019-02-06T00:17:39.372Z,956.43
2019-02-06T00:20:04.201Z,956.40
2019-02-06T00:22:30.544Z,956.40
2019-02-06T00:24:56.871Z,956.34
2019-02-06T00:27:23.180Z,956.41
2019-02-06T00:29:49.490Z,956.34
2019-02-06T00:32:15.943Z,956.38
2019-02-06T00:34:42.252Z,956.35
2019-02-06T00:37:08.696Z,956.35
2019-02-06T00:39:34.927Z,956.32
2019-02-06T00:42:01.242Z,956.31
2019-02-06T00:44:27.548Z,956.32
2019-02-06T00:46:53.864Z,956.31
2019-02-06T00:49:20.174Z,956.21
2019-02-06T00:51:46.487Z,956.22
2019-02-06T00:54:12.790Z,956.22
2019-02-06T00:56:39.101Z,956.26
2019-02-06T00:59:05.404Z,956.32
2019-02-06T01:01:31.711Z,956.30
2019-02-06T01:03:58.024Z,956.29
2019-02-06T01:06:24.329Z,956.28
2019-02-06T01:08:50.649Z,956.27
2019-02-06T01:11:16.952Z,956.26
2019-02-06T01:13:43.260Z,956.29
2019-02-06T01:16:09.573Z,956.28
2019-02-06T01:18:35.885Z,956.27
2019-02-06T01:21:02.192Z,956.16
2019-02-06T01:23:28.503Z,956.22
2019-02-06T01:25:54.818Z,956.15
2019-02-06T01:28:21.136Z,956.15
2019-02-06T01:30:47.448Z,956.18
2019-02-06T01:33:13.761Z,956.01
2019-02-06T01:35:49.610Z,956.01
2019-02-06T01:38:06.378Z,956.14
2019-02-06T01:40:32.691Z,956.00
2019-02-06T01:42:58.995Z,956.05
2019-02-06T01:45:25.297Z,956.04
2019-02-06T01:47:51.608Z,955.93
2019-02-06T01:50:17.920Z,955.96
2019-02-06T01:52:44.227Z,955.87
2019-02-06T01:55:10.539Z,955.96
2019-02-06T01:57:36.846Z,956.01
2019-02-06T02:00:03.152Z,955.92
2019-02-06T02:02:29.463Z,955.87
2019-02-06T02:04:55.771Z,955.76
2019-02-06T02:07:22.073Z,955.70
2019-02-06T02:09:48.388Z,955.69
2019-02-06T02:12:14.696Z,955.76
2019-02-06T02:14:41.019Z,955.69
2019-02-06T02:17:07.324Z,955.63
2019-02-06T02:19:33.628Z,955.61
2019-02-06T02:21:59.935Z,955.58
2019-02-06T02:24:26.251Z,955.62
2019-02-06T02:26:52.561Z,955.68
2019-02-06T02:29:18.880Z,955.62
2019-02-06T02:31:45.181Z,955.59
2019-02-06T02:34:11.494Z,955.64
2019-02-06T02:36:37.811Z,955.51
2019-02-06T02:39:04.117Z,955.34
2019-02-06T02:41:30.424Z,955.35
2019-02-06T02:43:56.774Z,955.37
2019-02-06T02:46:23.047Z,955.47
2019-02-06T02:48:49.360Z,955.35
2019-02-06T02:51:15.670Z,955.38
2019-02-06T02:53:41.986Z,955.33
2019-02-06T02:56:08.293Z,955.29
2019-02-06T02:58:34.609Z,955.36
2019-02-06T03:01:00.922Z,955.27
2019-02-06T03:03:27.227Z,955.35
2019-02-06T03:06:08.778Z,955.28
2019-02-06T03:08:35.078Z,955.18
2019-02-06T03:11:01.373Z,955.20
2019-02-06T03:13:27.678Z,955.19
2019-02-06T03:15:53.983Z,955.21
2019-02-06T03:18:20.325Z,955.20
2019-02-06T03:20:46.628Z,955.39
2019-02-06T03:23:12.965Z,955.37
2019-02-06T03:25:39.290Z,955.36
2019-02-06T03:28:05.600Z,955.31
2019-02-06T03:30:31.902Z,955.20
2019-02-06T03:32:58.196Z,955.30
2019-02-06T03:35:24.488Z,955.33
2019-02-06T03:37:50.802Z,955.29
2019-02-06T03:40:17.126Z,955.21
2019-02-06T03:42:43.418Z,955.17
2019-02-06T03:45:09.755Z,955.17
2019-02-06T03:47:36.055Z,955.16
2019-02-06T03:50:02.354Z,955.11
2019-02-06T03:52:28.711Z,955.03
2019-02-06T03:54:55.043Z,955.10
2019-02-06T03:57:21.317Z,955.11
2019-02-06T03:59:47.656Z,955.12
2019-02-06T04:02:13.953Z,955.17
2019-02-06T04:04:40.246Z,955.27
2019-02-06T04:07:06.539Z,955.24
2019-02-06T04:09:32.832Z,955.29
2019-02-06T04:11:59.133Z,955.29
2019-02-06T04:14:25.459Z,955.38
2019-02-06T04:16:51.745Z,955.28
2019-02-06T04:19:18.062Z,955.33
2019-02-06T04:21:44.375Z,955.47
2019-02-06T04:24:10.680Z,955.46
2019-02-06T04:26:37.006Z,955.47
2019-02-06T04:29:03.296Z,955.42
2019-02-06T04:31:29.609Z,955.30
2019-02-06T04:33:55.898Z,955.23
2019-02-06T04:36:22.232Z,955.15
2019-02-06T04:38:48.542Z,955.28
2019-02-06T04:41:14.877Z,955.23
2019-02-06T04:43:41.203Z,955.22
2019-02-06T04:46:07.506Z,955.34
2019-02-06T04:48:33.883Z,955.42
2019-02-06T04:51:00.234Z,955.47
2019-02-06T04:53:26.564Z,955.45
2019-02-06T04:55:52.877Z,955.48
2019-02-06T04:58:19.171Z,955.54
2019-02-06T05:00:45.549Z,955.56
2019-02-06T05:03:11.822Z,955.62
2019-02-06T05:05:38.135Z,955.52
2019-02-06T05:08:04.499Z,955.58
2019-02-06T05:10:30.874Z,955.63
2019-02-06T05:12:57.186Z,955.63
2019-02-06T05:15:23.499Z,955.67
2019-02-06T05:17:49.864Z,955.60
2019-02-06T05:20:16.187Z,955.55
2019-02-06T05:22:42.492Z,955.65
2019-02-06T05:25:08.802Z,955.66
2019-02-06T05:27:35.123Z,955.70
2019-02-06T05:30:01.435Z,955.75
2019-02-06T05:32:27.746Z,955.82
2019-02-06T05:34:54.089Z,955.84
2019-02-06T05:37:31.772Z,955.89
2019-02-06T05:39:46.732Z,955.89
2019-02-06T05:42:13.026Z,955.92
2019-02-06T05:44:39.367Z,955.97
2019-02-06T05:47:05.666Z,955.91
2019-02-06T05:49:31.974Z,955.93
2019-02-06T05:51:58.290Z,956.05
2019-02-06T05:54:24.607Z,956.08
2019-02-06T05:56:50.918Z,956.10
2019-02-06T05:59:17.232Z,956.15
2019-02-06T06:01:43.611Z,956.03
2019-02-06T06:04:09.913Z,956.04
2019-02-06T06:06:36.221Z,956.12
2019-02-06T06:09:02.534Z,956.06
2019-02-06T06:11:28.845Z,956.17
2019-02-06T06:13:55.153Z,956.21
2019-02-06T06:16:21.455Z,956.21
2019-02-06T06:18:47.793Z,956.28
2019-02-06T06:21:14.104Z,956.28
2019-02-06T06:23:40.450Z,956.24
2019-02-06T06:26:06.786Z,956.33
2019-02-06T06:28:33.099Z,956.33
2019-02-06T06:30:59.429Z,956.22
2019-02-06T06:33:25.708Z,956.10
2019-02-06T06:35:52.024Z,956.06
2019-02-06T06:38:18.325Z,956.02
2019-02-06T06:40:44.720Z,956.07
2019-02-06T06:43:11.033Z,956.01
2019-02-06T06:45:37.314Z,956.03
2019-02-06T06:48:03.654Z,956.02
2019-02-06T06:50:29.992Z,956.01
2019-02-06T06:52:56.301Z,956.09
2019-02-06T06:55:22.623Z,956.12
2019-02-06T06:57:48.924Z,956.09
2019-02-06T07:00:15.284Z,956.06
2019-02-06T07:02:41.631Z,956.11
2019-02-06T07:05:07.978Z,956.21
2019-02-06T07:07:34.317Z,956.16
2019-02-06T07:10:00.638Z,956.15
2019-02-06T07:12:26.959Z,956.14
2019-02-06T07:14:53.253Z,956.15
2019-02-06T07:17:19.547Z,956.08
2019-02-06T07:19:45.842Z,956.10
2019-02-06T07:22:12.184Z,956.11
2019-02-06T07:24:38.496Z,956.12
2019-02-06T07:27:04.812Z,956.10
2019-02-06T07:29:31.195Z,956.09
2019-02-06T07:31:57.477Z,956.17
2019-02-06T07:34:23.782Z,956.09
2019-02-06T07:36:50.208Z,956.21
2019-02-06T07:39:16.511Z,956.16
2019-02-06T07:41:43.128Z,956.17
2019-02-06T07:44:09.439Z,956.22
2019-02-06T07:46:35.736Z,956.16
2019-02-06T07:49:02.071Z,956.20
2019-02-06T07:51:28.387Z,956.21
2019-02-06T07:53:54.776Z,956.22
2019-02-06T07:56:21.068Z,956.24
2019-02-06T07:58:47.385Z,956.26
2019-02-06T08:01:13.682Z,956.23
2019-02-06T08:03:39.998Z,956.26
2019-02-06T08:06:06.290Z,956.28
2019-02-06T08:08:36.132Z,956.29
2019-02-06T08:10:58.913Z,956.23
2019-02-06T08:13:25.218Z,956.31
2019-02-06T08:15:51.578Z,956.32
2019-02-06T08:18:17.847Z,956.30
2019-02-06T08:20:44.237Z,956.35
2019-02-06T08:23:10.554Z,956.39
2019-02-06T08:25:36.881Z,956.41
2019-02-06T08:28:03.299Z,956.39
2019-02-06T08:30:29.592Z,956.40
2019-02-06T08:32:55.900Z,956.44
2019-02-06T08:35:22.207Z,956.40
2019-02-06T08:37:48.491Z,956.53
2019-02-06T08:40:14.795Z,956.50
2019-02-06T08:42:41.117Z,956.46
2019-02-06T08:45:07.416Z,956.46
2019-02-06T08:47:33.722Z,956.51
2019-02-06T08:50:00.025Z,956.51
2019-02-06T08:52:26.335Z,956.59
2019-02-06T08:54:52.658Z,956.57
2019-02-06T08:57:18.970Z,956.68
2019-02-06T08:59:45.284Z,956.70
2019-02-06T09:02:11.589Z,956.70
2019-02-06T09:04:37.882Z,956.64
2019-02-06T09:07:04.171Z,956.59
2019-02-06T09:09:30.495Z,956.55
2019-02-06T09:11:56.799Z,956.61
2019-02-06T09:14:23.097Z,956.68
2019-02-06T09:16:49.414Z,956.76
2019-02-06T09:19:15.707Z,956.78
2019-02-06T09:21:42.003Z,956.72
2019-02-06T09:24:08.310Z,956.69
2019-02-06T09:26:36.245Z,956.78
2019-02-06T09:29:00.917Z,956.78
2019-02-06T09:31:27.244Z,956.77
2019-02-06T09:33:53.548Z,956.81
2019-02-06T09:36:19.862Z,956.85
2019-02-06T09:38:46.193Z,956.81
2019-02-06T09:41:12.503Z,956.85
2019-02-06T09:43:38.817Z,956.84
2019-02-06T09:46:05.144Z,956.82
2019-02-06T09:48:31.451Z,956.82
2019-02-06T09:50:57.759Z,956.83
2019-02-06T09:53:24.151Z,956.77
2019-02-06T09:55:53.171Z,956.79
2019-02-06T09:58:16.732Z,956.78
2019-02-06T10:00:43.033Z,956.76
2019-02-06T10:03:09.329Z,956.77
2019-02-06T10:05:35.650Z,956.75
2019-02-06T10:08:01.929Z,956.78
2019-02-06T10:10:28.235Z,956.78
2019-02-06T10:12:54.531Z,956.74
2019-02-06T10:15:20.829Z,956.77
2019-02-06T10:17:47.142Z,956.78
2019-02-06T10:20:13.452Z,956.84
2019-02-06T10:22:39.802Z,956.70
2019-02-06T10:25:06.098Z,956.78
2019-02-06T10:27:32.397Z,956.72
2019-02-06T10:29:58.719Z,956.67
2019-02-06T10:32:25.039Z,956.69
2019-02-06T10:34:51.326Z,956.63
2019-02-06T10:37:17.626Z,956.68
2019-02-06T10:39:43.964Z,956.64
2019-02-06T10:42:10.293Z,956.60
2019-02-06T10:44:36.603Z,956.65
2019-02-06T10:47:02.918Z,956.67
2019-02-06T10:49:29.236Z,956.66
2019-02-06T10:51:55.536Z,956.63
2019-02-06T10:54:21.838Z,956.66
2019-02-06T10:56:48.158Z,956.64
2019-02-06T10:59:14.462Z,956.60
2019-02-06T11:01:40.800Z,956.68
2019-02-06T11:04:07.102Z,956.71
2019-02-06T11:06:33.418Z,956.66
2019-02-06T11:08:59.803Z,956.66
2019-02-06T11:11:26.112Z,956.73
2019-02-06T11:13:52.616Z,956.77
2019-02-06T11:16:21.072Z,956.81
2019-02-06T11:18:45.318Z,956.88
2019-02-06T11:21:11.779Z,956.82
2019-02-06T11:23:38.102Z,956.82
2019-02-06T11:26:04.394Z,956.73
2019-02-06T11:28:30.695Z,956.69
2019-02-06T11:30:57.330Z,956.54
2019-02-06T11:33:23.328Z,956.43
2019-02-06T11:35:49.636Z,956.51
2019-02-06T11:38:15.956Z,956.62
2019-02-06T11:40:42.269Z,956.68
2019-02-06T11:43:08.576Z,956.61
2019-02-06T11:45:34.888Z,956.61
2019-02-06T11:48:01.200Z,956.58
2019-02-06T11:50:27.513Z,956.64
2019-02-06T11:52:53.815Z,956.63
2019-02-06T11:55:20.139Z,956.64
2019-02-06T11:57:46.445Z,956.58
2019-02-06T12:00:12.775Z,956.64
2019-02-06T12:02:39.086Z,956.64
2019-02-06T12:05:05.393Z,956.62
2019-02-06T12:07:31.765Z,956.58
2019-02-06T12:10:09.034Z,956.59
2019-02-06T12:12:24.380Z,956.65
2019-02-06T12:14:50.682Z,956.64
2019-02-06T12:17:16.995Z,956.62
2019-02-06T12:19:43.308Z,956.58
2019-02-06T12:22:09.621Z,956.59
2019-02-06T12:24:35.924Z,956.56
2019-02-06T12:27:02.242Z,956.40
2019-02-06T12:29:28.572Z,956.42
2019-02-06T12:31:54.877Z,956.45
2019-02-06T12:34:23.494Z,956.42
2019-02-06T12:36:49.794Z,956.44
2019-02-06T12:39:16.109Z,956.52
2019-02-06T12:41:42.451Z,956.52
2019-02-06T12:44:08.843Z,956.52
2019-02-06T12:46:35.155Z,956.60
2019-02-06T12:49:01.490Z,956.67
2019-02-06T12:51:27.796Z,956.61
2019-02-06T12:53:54.101Z,956.67
2019-02-06T12:56:20.201Z,956.65
2019-02-06T12:58:46.489Z,956.69
2019-02-06T13:01:12.797Z,956.66
2019-02-06T13:03:39.111Z,956.67
2019-02-06T13:06:05.429Z,956.67
2019-02-06T13:08:31.739Z,956.68
2019-02-06T13:10:58.053Z,956.71
2019-02-06T13:13:24.371Z,956.74
2019-02-06T13:15:50.687Z,956.80
2019-02-06T13:18:17.003Z,956.76
2019-02-06T13:20:43.307Z,956.70
2019-02-06T13:23:09.635Z,956.73
2019-02-06T13:25:35.941Z,956.74
2019-02-06T13:28:02.250Z,956.79
2019-02-06T13:30:28.571Z,956.74
2019-02-06T13:32:54.880Z,956.81
2019-02-06T13:35:21.183Z,956.80
2019-02-06T13:37:48.495Z,956.80
2019-02-06T13:40:14.808Z,956.78
2019-02-06T13:42:41.125Z,956.80
2019-02-06T13:45:07.441Z,956.73
2019-02-06T13:47:33.745Z,956.72
2019-02-06T13:50:00.187Z,956.71
2019-02-06T13:52:26.387Z,956.77
2019-02-06T13:54:52.693Z,956.75
2019-02-06T13:57:19.016Z,956.82
2019-02-06T13:59:45.325Z,956.85
2019-02-06T14:02:11.632Z,956.84
2019-02-06T14:04:37.937Z,956.95
2019-02-06T14:07:04.264Z,956.92
2019-02-06T14:09:30.564Z,957.05
2019-02-06T14:11:56.877Z,956.99
2019-02-06T14:14:23.182Z,957.05
2019-02-06T14:16:49.549Z,957.12
2019-02-06T14:19:15.866Z,957.09
2019-02-06T14:21:42.174Z,957.13
2019-02-06T14:24:08.544Z,957.09
2019-02-06T14:26:34.849Z,957.10
2019-02-06T14:29:01.255Z,957.06
2019-02-06T14:31:31.350Z,957.07
2019-02-06T14:33:56.442Z,956.95
2019-02-06T14:36:22.768Z,957.12
2019-02-06T14:38:49.139Z,957.06
2019-02-06T14:41:15.561Z,957.08
2019-02-06T14:43:41.811Z,957.08
2019-02-06T14:46:08.116Z,957.09
2019-02-06T14:48:34.427Z,957.04
2019-02-06T14:51:00.731Z,957.09
2019-02-06T14:53:27.050Z,957.07
2019-02-06T14:55:53.415Z,957.09
2019-02-06T14:58:19.718Z,956.93
2019-02-06T15:00:46.025Z,956.96
2019-02-06T15:03:12.333Z,956.99
2019-02-06T15:05:38.660Z,956.90
2019-02-06T15:08:04.975Z,956.87
2019-02-06T15:10:31.285Z,956.86
2019-02-06T15:12:57.598Z,956.83
2019-02-06T15:15:23.902Z,956.86
2019-02-06T15:17:50.215Z,956.76
2019-02-06T15:20:16.534Z,956.83
2019-02-06T15:22:42.840Z,956.78
2019-02-06T15:25:09.159Z,956.87
2019-02-06T15:27:35.471Z,956.87
2019-02-06T15:30:01.785Z,956.82
2019-02-06T15:32:28.094Z,956.78
2019-02-06T15:34:54.405Z,956.84
2019-02-06T15:37:20.718Z,956.80
2019-02-06T15:39:47.037Z,956.80
2019-02-06T15:42:13.353Z,956.81
2019-02-06T15:44:39.671Z,956.79
2019-02-06T15:47:05.972Z,956.74
2019-02-06T15:49:32.292Z,956.78
2019-02-06T15:51:58.601Z,956.74
2019-02-06T15:54:24.942Z,956.81
2019-02-06T15:56:51.225Z,956.82
2019-02-06T15:59:17.553Z,956.87
2019-02-06T16:01:43.881Z,956.91
2019-02-06T16:04:10.193Z,956.91
2019-02-06T16:06:36.510Z,956.96
2019-02-06T16:09:02.817Z,956.96
2019-02-06T16:11:29.124Z,957.00
2019-02-06T16:13:55.453Z,957.02
2019-02-06T16:16:21.761Z,957.02
2019-02-06T16:18:48.077Z,957.15
2019-02-06T16:21:14.384Z,957.15
2019-02-06T16:23:40.693Z,957.15
2019-02-06T16:26:07.022Z,957.23
2019-02-06T16:28:33.397Z,957.23
2019-02-06T16:30:59.645Z,957.29
2019-02-06T16:33:25.954Z,957.34
2019-02-06T16:35:52.264Z,957.32
2019-02-06T16:38:18.590Z,957.35
2019-02-06T16:40:44.912Z,957.39
2019-02-06T16:43:11.220Z,957.38
2019-02-06T16:45:37.528Z,957.35
2019-02-06T16:48:04.152Z,957.40
2019-02-06T16:50:30.828Z,957.45
2019-02-06T16:52:57.143Z,957.53
2019-02-06T16:55:23.713Z,957.56
2019-02-06T16:57:50.039Z,957.63
2019-02-06T17:00:16.354Z,957.67
2019-02-06T17:02:42.824Z,957.69
2019-02-06T17:05:09.145Z,957.79
2019-02-06T17:07:35.456Z,957.78
2019-02-06T17:10:01.768Z,957.83
2019-02-06T17:12:28.077Z,957.86
2019-02-06T17:14:54.396Z,957.79
2019-02-06T17:17:20.703Z,957.80
2019-02-06T17:19:47.013Z,957.83
2019-02-06T17:22:13.321Z,957.83
2019-02-06T17:24:39.631Z,957.85
2019-02-06T17:27:05.943Z,957.88
2019-02-06T17:29:32.249Z,957.92
2019-02-06T17:31:58.566Z,957.87
2019-02-06T17:34:24.905Z,957.97
2019-02-06T17:36:51.201Z,957.91
2019-02-06T17:39:24.290Z,957.91
2019-02-06T17:41:43.826Z,957.85
2019-02-06T17:44:12.651Z,957.90
2019-02-06T17:46:36.449Z,957.93
2019-02-06T17:49:02.764Z,957.96
2019-02-06T17:51:29.120Z,957.99
2019-02-06T17:53:55.462Z,958.09
2019-02-06T17:56:21.746Z,958.05
2019-02-06T17:58:48.945Z,958.14
2019-02-06T18:01:15.258Z,958.08
2019-02-06T18:03:41.569Z,958.04
2019-02-06T18:06:08.024Z,958.07
2019-02-06T18:08:34.434Z,958.12
2019-02-06T18:11:00.718Z,958.10
2019-02-06T18:13:27.029Z,958.19
2019-02-06T18:15:53.464Z,958.12
2019-02-06T18:18:19.792Z,958.15
2019-02-06T18:20:46.096Z,958.12
2019-02-06T18:23:12.468Z,958.16
2019-02-06T18:25:38.792Z,958.15
2019-02-06T18:28:05.097Z,958.15
2019-02-06T18:30:31.434Z,958.14
2019-02-06T18:32:57.745Z,958.16
2019-02-06T18:35:24.056Z,958.18
2019-02-06T18:37:50.367Z,958.20
2019-02-06T18:40:16.692Z,958.17
2019-02-06T18:42:43.000Z,958.20
2019-02-06T18:45:09.305Z,958.23
2019-02-06T18:47:35.626Z,958.26
2019-02-06T18:50:01.937Z,958.25
2019-02-06T18:52:28.253Z,958.34
2019-02-06T18:54:54.561Z,958.36
2019-02-06T18:57:20.873Z,958.39
2019-02-06T18:59:48.520Z,958.41
2019-02-06T19:02:13.516Z,958.40
2019-02-06T19:04:39.828Z,958.49
2019-02-06T19:07:06.193Z,958.48
2019-02-06T19:09:33.390Z,958.45
2019-02-06T19:11:59.719Z,958.54
2019-02-06T19:14:26.030Z,958.49
2019-02-06T19:16:52.346Z,958.61
2019-02-06T19:19:25.405Z,958.61
2019-02-06T19:21:45.144Z,958.57
2019-02-06T19:24:11.484Z,958.61
2019-02-06T19:26:37.809Z,958.59
2019-02-06T19:29:04.133Z,958.64
2019-02-06T19:31:30.872Z,958.59
2019-02-06T19:33:57.191Z,958.66
2019-02-06T19:36:23.513Z,958.63
2019-02-06T19:38:49.820Z,958.60
2019-02-06T19:41:16.139Z,958.65
2019-02-06T19:43:42.457Z,958.65
2019-02-06T19:46:08.773Z,958.75
2019-02-06T19:48:35.091Z,958.65
2019-02-06T19:51:01.403Z,958.68
2019-02-06T19:53:27.805Z,958.69
2019-02-06T19:55:54.043Z,958.69
2019-02-06T19:58:20.362Z,958.73
2019-02-06T20:00:49.692Z,958.73
2019-02-06T20:03:16.086Z,958.74
2019-02-06T20:05:42.366Z,958.77
2019-02-06T20:08:08.693Z,958.75
2019-02-06T20:10:35.009Z,958.70
2019-02-06T20:13:10.520Z,958.76
2019-02-06T20:15:27.675Z,958.75
2019-02-06T20:17:53.991Z,958.69
2019-02-06T20:20:20.374Z,958.74
2019-02-06T20:22:46.681Z,958.76
2019-02-06T20:25:12.994Z,958.81
2019-02-06T20:27:39.319Z,958.86
2019-02-06T20:30:05.635Z,958.92
2019-02-06T20:32:31.942Z,958.89
2019-02-06T20:34:58.255Z,958.87
2019-02-06T20:37:24.572Z,958.93
2019-02-06T20:39:50.891Z,958.95
2019-02-06T20:42:17.204Z,958.97
2019-02-06T20:44:43.528Z,958.87
2019-02-06T20:47:09.846Z,958.94
2019-02-06T20:49:36.163Z,958.96
2019-02-06T20:52:02.476Z,958.93
2019-02-06T20:54:28.821Z,958.97
2019-02-06T20:56:55.196Z,958.97
2019-02-06T20:59:21.550Z,958.97
2019-02-06T21:01:47.864Z,958.96
2019-02-06T21:04:14.171Z,958.97
2019-02-06T21:06:40.498Z,958.99
2019-02-06T21:09:06.802Z,958.93
2019-02-06T21:11:33.352Z,958.95
2019-02-06T21:13:59.621Z,958.88
2019-02-06T21:16:25.930Z,958.88
2019-02-06T21:18:52.354Z,958.86
2019-02-06T21:21:18.696Z,958.85
2019-02-06T21:23:45.148Z,958.89
2019-02-06T21:26:11.348Z,958.86
2019-02-06T21:28:37.663Z,958.78
2019-02-06T21:31:03.992Z,958.85
2019-02-06T21:33:30.309Z,958.83
2019-02-06T21:35:56.617Z,958.80
2019-02-06T21:38:22.941Z,958.80
2019-02-06T21:40:49.248Z,958.80
2019-02-06T21:43:15.560Z,958.91
2019-02-06T21:45:41.865Z,958.88
2019-02-06T21:48:08.183Z,958.85
2019-02-06T21:50:34.534Z,958.78
2019-02-06T21:53:00.851Z,958.86
2019-02-06T21:55:27.159Z,958.88
2019-02-06T21:57:53.486Z,958.85
2019-02-06T22:00:19.798Z,958.86
2019-02-06T22:02:46.114Z,958.97
2019-02-06T22:05:14.334Z,958.89
2019-02-06T22:07:38.755Z,958.84
2019-02-06T22:10:05.064Z,958.83
2019-02-06T22:12:31.376Z,958.84
2019-02-06T22:14:57.687Z,958.82
2019-02-06T22:17:23.996Z,958.83
2019-02-06T22:19:50.315Z,958.80
2019-02-06T22:22:16.624Z,958.72
2019-02-06T22:24:42.944Z,958.80
2019-02-06T22:27:09.249Z,958.80
2019-02-06T22:29:35.567Z,958.79
2019-02-06T22:32:01.875Z,958.84
2019-02-06T22:34:28.186Z,958.90
2019-02-06T22:36:54.502Z,958.87
2019-02-06T22:39:20.819Z,958.83
2019-02-06T22:41:47.129Z,958.81
2019-02-06T22:44:13.449Z,958.82
2019-02-06T22:46:39.810Z,958.91
2019-02-06T22:49:06.120Z,958.87
2019-02-06T22:51:32.428Z,958.89
2019-02-06T22:53:58.739Z,958.89
2019-02-06T22:56:25.062Z,958.85
2019-02-06T22:58:51.407Z,958.79
2019-02-06T23:01:17.718Z,958.83
2019-02-06T23:03:44.034Z,958.86
2019-02-06T23:06:10.346Z,958.91
2019-02-06T23:08:36.659Z,958.85
2019-02-06T23:11:02.961Z,958.89
2019-02-06T23:13:29.278Z,958.86
2019-02-06T23:15:55.589Z,958.86
2019-02-06T23:18:21.902Z,958.79
2019-02-06T23:20:48.222Z,958.71
2019-02-06T23:23:14.530Z,958.69
2019-02-06T23:25:43.117Z,958.66
2019-02-06T23:28:07.146Z,958.70
2019-02-06T23:30:33.462Z,958.66
2019-02-06T23:32:59.816Z,958.69
2019-02-06T23:35:26.098Z,958.60
2019-02-06T23:37:52.435Z,958.68
2019-02-06T23:40:19.166Z,958.66
2019-02-06T23:42:45.479Z,958.58
2019-02-06T23:45:11.862Z,958.65
2019-02-06T23:47:38.119Z,958.67
2019-02-06T23:50:04.430Z,958.65
2019-02-06T23:52:30.752Z,958.62
2019-02-06T23:54:57.057Z,958.58
2019-02-06T23:57:23.420Z,958.70
2019-02-06T23:59:49.682Z,958.72
